sensor_id;sensor_type;location;lat;lon;timestamp;P1;durP1;ratioP1;P2;durP2;ratioP2
64903;SDS011;51401;48.882;12.598;2023-03-14T00:02:05;5.82;;;4.05;;
64903;SDS011;51401;48.882;12.598;2023-03-14T00:04:31;6.03;;;4.03;;
64903;SDS011;51401;48.882;12.598;2023-03-14T00:06:56;7.35;;;5.30;;
64903;SDS011;51401;48.882;12.598;2023-03-14T00:09:21;6.32;;;4.47;;
64903;SDS011;51401;48.882;12.598;2023-03-14T00:11:47;6.72;;;4.15;;
64903;SDS011;51401;48.882;12.598;2023-03-14T00:14:12;7.13;;;4.35;;
64903;SDS011;51401;48.882;12.598;2023-03-14T00:16:37;6.93;;;4.43;;
64903;SDS011;51401;48.882;12.598;2023-03-14T00:19:03;6.97;;;5.05;;
64903;SDS011;51401;48.882;12.598;2023-03-14T00:21:28;7.85;;;4.63;;
64903;SDS011;51401;48.882;12.598;2023-03-14T00:23:53;12.13;;;6.25;;
64903;SDS011;51401;48.882;12.598;2023-03-14T00:26:20;9.15;;;5.53;;
64903;SDS011;51401;48.882;12.598;2023-03-14T00:28:46;19.30;;;8.70;;
64903;SDS011;51401;48.882;12.598;2023-03-14T00:31:13;17.02;;;8.07;;
64903;SDS011;51401;48.882;12.598;2023-03-14T00:33:40;10.57;;;6.00;;
64903;SDS011;51401;48.882;12.598;2023-03-14T00:36:06;12.82;;;6.40;;
64903;SDS011;51401;48.882;12.598;2023-03-14T00:38:34;12.25;;;6.13;;
64903;SDS011;51401;48.882;12.598;2023-03-14T00:41:04;6.15;;;5.03;;
64903;SDS011;51401;48.882;12.598;2023-03-14T00:43:33;6.00;;;4.43;;
64903;SDS011;51401;48.882;12.598;2023-03-14T00:45:59;7.20;;;4.43;;
64903;SDS011;51401;48.882;12.598;2023-03-14T00:48:24;18.10;;;8.68;;
64903;SDS011;51401;48.882;12.598;2023-03-14T00:50:49;21.00;;;8.80;;
64903;SDS011;51401;48.882;12.598;2023-03-14T00:53:15;10.02;;;5.60;;
64903;SDS011;51401;48.882;12.598;2023-03-14T00:55:41;7.18;;;4.60;;
64903;SDS011;51401;48.882;12.598;2023-03-14T00:58:10;6.55;;;3.97;;
64903;SDS011;51401;48.882;12.598;2023-03-14T01:00:37;6.90;;;4.75;;
64903;SDS011;51401;48.882;12.598;2023-03-14T01:03:03;6.57;;;3.95;;
64903;SDS011;51401;48.882;12.598;2023-03-14T01:05:29;6.75;;;3.95;;
64903;SDS011;51401;48.882;12.598;2023-03-14T01:07:54;4.65;;;3.47;;
64903;SDS011;51401;48.882;12.598;2023-03-14T01:10:20;4.72;;;4.22;;
64903;SDS011;51401;48.882;12.598;2023-03-14T01:12:45;5.68;;;3.95;;
64903;SDS011;51401;48.882;12.598;2023-03-14T01:15:10;5.82;;;3.85;;
64903;SDS011;51401;48.882;12.598;2023-03-14T01:17:36;5.35;;;3.00;;
64903;SDS011;51401;48.882;12.598;2023-03-14T01:20:03;5.97;;;3.78;;
64903;SDS011;51401;48.882;12.598;2023-03-14T01:22:29;4.55;;;3.42;;
64903;SDS011;51401;48.882;12.598;2023-03-14T01:24:55;6.28;;;3.85;;
64903;SDS011;51401;48.882;12.598;2023-03-14T01:27:20;3.55;;;3.05;;
64903;SDS011;51401;48.882;12.598;2023-03-14T01:29:46;3.75;;;3.35;;
64903;SDS011;51401;48.882;12.598;2023-03-14T01:32:12;6.03;;;3.63;;
64903;SDS011;51401;48.882;12.598;2023-03-14T01:34:37;4.70;;;3.17;;
64903;SDS011;51401;48.882;12.598;2023-03-14T01:37:03;3.90;;;2.97;;
64903;SDS011;51401;48.882;12.598;2023-03-14T01:39:28;4.18;;;3.25;;
64903;SDS011;51401;48.882;12.598;2023-03-14T01:41:54;5.97;;;3.70;;
64903;SDS011;51401;48.882;12.598;2023-03-14T01:44:19;5.40;;;3.40;;
64903;SDS011;51401;48.882;12.598;2023-03-14T01:46:45;4.10;;;3.70;;
64903;SDS011;51401;48.882;12.598;2023-03-14T01:51:56;3.83;;;3.17;;
64903;SDS011;51401;48.882;12.598;2023-03-14T01:59:35;5.50;;;3.33;;
64903;SDS011;51401;48.882;12.598;2023-03-14T02:02:04;3.78;;;2.92;;
64903;SDS011;51401;48.882;12.598;2023-03-14T02:04:32;4.75;;;3.00;;
64903;SDS011;51401;48.882;12.598;2023-03-14T02:07:03;5.07;;;3.15;;
64903;SDS011;51401;48.882;12.598;2023-03-14T02:09:44;5.20;;;3.53;;
64903;SDS011;51401;48.882;12.598;2023-03-14T02:12:11;4.85;;;3.35;;
64903;SDS011;51401;48.882;12.598;2023-03-14T02:14:40;4.65;;;3.13;;
64903;SDS011;51401;48.882;12.598;2023-03-14T02:17:07;4.05;;;3.00;;
64903;SDS011;51401;48.882;12.598;2023-03-14T02:22:17;5.22;;;3.35;;
64903;SDS011;51401;48.882;12.598;2023-03-14T02:27:32;4.05;;;3.33;;
64903;SDS011;51401;48.882;12.598;2023-03-14T02:30:00;4.85;;;3.42;;
64903;SDS011;51401;48.882;12.598;2023-03-14T02:32:29;3.47;;;3.05;;
64903;SDS011;51401;48.882;12.598;2023-03-14T02:34:58;3.88;;;2.63;;
64903;SDS011;51401;48.882;12.598;2023-03-14T02:37:27;2.83;;;1.92;;
64903;SDS011;51401;48.882;12.598;2023-03-14T02:39:59;2.17;;;1.38;;
64903;SDS011;51401;48.882;12.598;2023-03-14T02:42:24;1.45;;;1.02;;
64903;SDS011;51401;48.882;12.598;2023-03-14T02:44:51;1.58;;;0.82;;
64903;SDS011;51401;48.882;12.598;2023-03-14T02:47:19;1.23;;;0.73;;
64903;SDS011;51401;48.882;12.598;2023-03-14T02:49:50;1.65;;;0.85;;
64903;SDS011;51401;48.882;12.598;2023-03-14T02:52:18;1.08;;;0.60;;
64903;SDS011;51401;48.882;12.598;2023-03-14T02:54:43;0.40;;;0.40;;
64903;SDS011;51401;48.882;12.598;2023-03-14T02:57:08;0.63;;;0.52;;
64903;SDS011;51401;48.882;12.598;2023-03-14T02:59:34;1.10;;;0.50;;
64903;SDS011;51401;48.882;12.598;2023-03-14T03:01:59;0.30;;;0.30;;
64903;SDS011;51401;48.882;12.598;2023-03-14T03:04:24;0.75;;;0.32;;
64903;SDS011;51401;48.882;12.598;2023-03-14T03:06:50;0.70;;;0.60;;
64903;SDS011;51401;48.882;12.598;2023-03-14T03:09:15;0.82;;;0.30;;
64903;SDS011;51401;48.882;12.598;2023-03-14T03:11:40;1.73;;;0.30;;
64903;SDS011;51401;48.882;12.598;2023-03-14T03:14:05;0.30;;;0.30;;
64903;SDS011;51401;48.882;12.598;2023-03-14T03:16:31;1.73;;;0.43;;
64903;SDS011;51401;48.882;12.598;2023-03-14T03:18:56;1.10;;;0.90;;
64903;SDS011;51401;48.882;12.598;2023-03-14T03:21:21;0.90;;;0.38;;
64903;SDS011;51401;48.882;12.598;2023-03-14T03:23:48;0.35;;;0.35;;
64903;SDS011;51401;48.882;12.598;2023-03-14T03:26:14;0.20;;;0.20;;
64903;SDS011;51401;48.882;12.598;2023-03-14T03:28:39;1.25;;;0.40;;
64903;SDS011;51401;48.882;12.598;2023-03-14T03:31:08;0.38;;;0.30;;
64903;SDS011;51401;48.882;12.598;2023-03-14T03:33:35;0.35;;;0.30;;
64903;SDS011;51401;48.882;12.598;2023-03-14T03:36:01;0.30;;;0.30;;
64903;SDS011;51401;48.882;12.598;2023-03-14T03:38:26;0.30;;;0.30;;
64903;SDS011;51401;48.882;12.598;2023-03-14T03:40:52;0.20;;;0.20;;
64903;SDS011;51401;48.882;12.598;2023-03-14T03:43:17;0.20;;;0.20;;
64903;SDS011;51401;48.882;12.598;2023-03-14T03:45:43;0.43;;;0.30;;
64903;SDS011;51401;48.882;12.598;2023-03-14T03:48:08;0.40;;;0.40;;
64903;SDS011;51401;48.882;12.598;2023-03-14T03:50:33;0.63;;;0.40;;
64903;SDS011;51401;48.882;12.598;2023-03-14T03:52:59;0.40;;;0.40;;
64903;SDS011;51401;48.882;12.598;2023-03-14T03:55:24;0.30;;;0.30;;
64903;SDS011;51401;48.882;12.598;2023-03-14T03:57:50;1.20;;;0.60;;
64903;SDS011;51401;48.882;12.598;2023-03-14T04:00:16;0.50;;;0.40;;
64903;SDS011;51401;48.882;12.598;2023-03-14T04:02:41;1.60;;;0.52;;
64903;SDS011;51401;48.882;12.598;2023-03-14T04:05:07;0.45;;;0.45;;
64903;SDS011;51401;48.882;12.598;2023-03-14T04:07:33;5.32;;;2.50;;
64903;SDS011;51401;48.882;12.598;2023-03-14T04:09:58;5.97;;;2.60;;
64903;SDS011;51401;48.882;12.598;2023-03-14T04:12:24;4.53;;;1.90;;
64903;SDS011;51401;48.882;12.598;2023-03-14T04:14:49;3.10;;;1.52;;
64903;SDS011;51401;48.882;12.598;2023-03-14T04:17:14;3.22;;;1.63;;
64903;SDS011;51401;48.882;12.598;2023-03-14T04:19:40;3.15;;;1.88;;
64903;SDS011;51401;48.882;12.598;2023-03-14T04:22:05;1.65;;;1.25;;
64903;SDS011;51401;48.882;12.598;2023-03-14T04:24:31;1.80;;;0.90;;
64903;SDS011;51401;48.882;12.598;2023-03-14T04:26:56;2.50;;;1.30;;
64903;SDS011;51401;48.882;12.598;2023-03-14T04:29:21;1.38;;;1.08;;
64903;SDS011;51401;48.882;12.598;2023-03-14T04:31:46;2.60;;;1.10;;
64903;SDS011;51401;48.882;12.598;2023-03-14T04:34:12;2.85;;;0.80;;
64903;SDS011;51401;48.882;12.598;2023-03-14T04:36:37;1.25;;;1.05;;
64903;SDS011;51401;48.882;12.598;2023-03-14T04:39:02;3.22;;;2.20;;
64903;SDS011;51401;48.882;12.598;2023-03-14T04:41:29;1.52;;;1.15;;
64903;SDS011;51401;48.882;12.598;2023-03-14T04:43:54;1.40;;;0.98;;
64903;SDS011;51401;48.882;12.598;2023-03-14T04:46:19;1.38;;;1.00;;
64903;SDS011;51401;48.882;12.598;2023-03-14T04:48:45;2.45;;;0.80;;
64903;SDS011;51401;48.882;12.598;2023-03-14T04:51:10;1.08;;;0.85;;
64903;SDS011;51401;48.882;12.598;2023-03-14T04:53:35;2.40;;;1.20;;
64903;SDS011;51401;48.882;12.598;2023-03-14T04:56:02;0.98;;;0.77;;
64903;SDS011;51401;48.882;12.598;2023-03-14T04:58:27;1.10;;;0.90;;
64903;SDS011;51401;48.882;12.598;2023-03-14T05:00:52;0.90;;;0.80;;
64903;SDS011;51401;48.882;12.598;2023-03-14T05:03:18;1.73;;;1.00;;
64903;SDS011;51401;48.882;12.598;2023-03-14T05:05:44;0.85;;;0.77;;
64903;SDS011;51401;48.882;12.598;2023-03-14T05:08:10;3.00;;;0.65;;
64903;SDS011;51401;48.882;12.598;2023-03-14T05:10:35;1.00;;;0.80;;
64903;SDS011;51401;48.882;12.598;2023-03-14T05:13:01;0.90;;;0.75;;
64903;SDS011;51401;48.882;12.598;2023-03-14T05:15:26;2.58;;;0.98;;
64903;SDS011;51401;48.882;12.598;2023-03-14T05:17:52;0.88;;;0.73;;
64903;SDS011;51401;48.882;12.598;2023-03-14T05:20:19;1.77;;;1.05;;
64903;SDS011;51401;48.882;12.598;2023-03-14T05:22:44;1.42;;;1.00;;
64903;SDS011;51401;48.882;12.598;2023-03-14T05:25:09;1.30;;;1.10;;
64903;SDS011;51401;48.882;12.598;2023-03-14T05:27:35;11.82;;;1.38;;
64903;SDS011;51401;48.882;12.598;2023-03-14T05:30:01;1.55;;;1.00;;
64903;SDS011;51401;48.882;12.598;2023-03-14T05:32:28;1.08;;;0.98;;
64903;SDS011;51401;48.882;12.598;2023-03-14T05:34:53;1.67;;;1.10;;
64903;SDS011;51401;48.882;12.598;2023-03-14T05:37:23;2.10;;;1.33;;
64903;SDS011;51401;48.882;12.598;2023-03-14T05:39:48;3.13;;;1.63;;
64903;SDS011;51401;48.882;12.598;2023-03-14T05:42:13;4.30;;;2.67;;
64903;SDS011;51401;48.882;12.598;2023-03-14T05:44:39;3.33;;;2.42;;
64903;SDS011;51401;48.882;12.598;2023-03-14T05:47:04;2.05;;;1.45;;
64903;SDS011;51401;48.882;12.598;2023-03-14T05:49:29;1.75;;;1.50;;
64903;SDS011;51401;48.882;12.598;2023-03-14T05:51:55;1.45;;;1.05;;
64903;SDS011;51401;48.882;12.598;2023-03-14T05:54:20;2.40;;;1.00;;
64903;SDS011;51401;48.882;12.598;2023-03-14T05:56:45;1.00;;;0.80;;
64903;SDS011;51401;48.882;12.598;2023-03-14T05:59:10;1.98;;;1.00;;
64903;SDS011;51401;48.882;12.598;2023-03-14T06:01:36;1.50;;;1.15;;
64903;SDS011;51401;48.882;12.598;2023-03-14T06:04:01;1.20;;;0.88;;
64903;SDS011;51401;48.882;12.598;2023-03-14T06:06:26;2.05;;;1.58;;
64903;SDS011;51401;48.882;12.598;2023-03-14T06:08:52;2.38;;;1.60;;
64903;SDS011;51401;48.882;12.598;2023-03-14T06:11:17;1.63;;;0.80;;
64903;SDS011;51401;48.882;12.598;2023-03-14T06:13:42;1.40;;;0.98;;
64903;SDS011;51401;48.882;12.598;2023-03-14T06:16:08;1.23;;;0.88;;
64903;SDS011;51401;48.882;12.598;2023-03-14T06:18:33;0.65;;;0.60;;
64903;SDS011;51401;48.882;12.598;2023-03-14T06:20:59;1.55;;;0.70;;
64903;SDS011;51401;48.882;12.598;2023-03-14T06:23:24;0.50;;;0.50;;
64903;SDS011;51401;48.882;12.598;2023-03-14T06:25:50;2.25;;;0.90;;
64903;SDS011;51401;48.882;12.598;2023-03-14T06:28:15;0.98;;;0.50;;
64903;SDS011;51401;48.882;12.598;2023-03-14T06:30:40;1.80;;;0.90;;
64903;SDS011;51401;48.882;12.598;2023-03-14T06:33:06;1.95;;;1.23;;
64903;SDS011;51401;48.882;12.598;2023-03-14T06:35:31;2.63;;;1.15;;
64903;SDS011;51401;48.882;12.598;2023-03-14T06:37:56;2.33;;;1.35;;
64903;SDS011;51401;48.882;12.598;2023-03-14T06:40:22;1.85;;;1.00;;
64903;SDS011;51401;48.882;12.598;2023-03-14T06:42:48;1.50;;;0.88;;
64903;SDS011;51401;48.882;12.598;2023-03-14T06:45:13;1.30;;;0.80;;
64903;SDS011;51401;48.882;12.598;2023-03-14T06:47:39;1.60;;;0.90;;
64903;SDS011;51401;48.882;12.598;2023-03-14T06:50:05;1.85;;;0.80;;
64903;SDS011;51401;48.882;12.598;2023-03-14T06:52:32;1.55;;;0.90;;
64903;SDS011;51401;48.882;12.598;2023-03-14T06:54:57;1.13;;;1.02;;
64903;SDS011;51401;48.882;12.598;2023-03-14T06:57:22;1.40;;;0.80;;
64903;SDS011;51401;48.882;12.598;2023-03-14T06:59:48;2.17;;;0.70;;
64903;SDS011;51401;48.882;12.598;2023-03-14T07:02:13;2.20;;;0.98;;
64903;SDS011;51401;48.882;12.598;2023-03-14T07:04:39;1.00;;;0.50;;
64903;SDS011;51401;48.882;12.598;2023-03-14T07:07:04;1.15;;;0.68;;
64903;SDS011;51401;48.882;12.598;2023-03-14T07:09:30;0.85;;;0.50;;
64903;SDS011;51401;48.882;12.598;2023-03-14T07:11:56;0.80;;;0.50;;
64903;SDS011;51401;48.882;12.598;2023-03-14T07:14:21;0.82;;;0.50;;
64903;SDS011;51401;48.882;12.598;2023-03-14T07:16:47;1.25;;;0.50;;
64903;SDS011;51401;48.882;12.598;2023-03-14T07:19:12;0.50;;;0.50;;
64903;SDS011;51401;48.882;12.598;2023-03-14T07:21:37;1.25;;;0.60;;
64903;SDS011;51401;48.882;12.598;2023-03-14T07:24:03;1.00;;;0.70;;
64903;SDS011;51401;48.882;12.598;2023-03-14T07:26:28;1.05;;;0.60;;
64903;SDS011;51401;48.882;12.598;2023-03-14T07:28:53;0.50;;;0.50;;
64903;SDS011;51401;48.882;12.598;2023-03-14T07:31:19;0.50;;;0.40;;
64903;SDS011;51401;48.882;12.598;2023-03-14T07:33:44;1.00;;;0.47;;
64903;SDS011;51401;48.882;12.598;2023-03-14T07:36:09;1.40;;;0.60;;
64903;SDS011;51401;48.882;12.598;2023-03-14T07:38:35;1.02;;;0.50;;
64903;SDS011;51401;48.882;12.598;2023-03-14T07:41:01;0.45;;;0.45;;
64903;SDS011;51401;48.882;12.598;2023-03-14T07:43:28;0.47;;;0.40;;
64903;SDS011;51401;48.882;12.598;2023-03-14T07:45:53;1.00;;;0.80;;
64903;SDS011;51401;48.882;12.598;2023-03-14T07:48:19;0.75;;;0.60;;
64903;SDS011;51401;48.882;12.598;2023-03-14T07:50:47;0.40;;;0.40;;
64903;SDS011;51401;48.882;12.598;2023-03-14T07:53:13;0.63;;;0.50;;
64903;SDS011;51401;48.882;12.598;2023-03-14T07:55:39;0.90;;;0.73;;
64903;SDS011;51401;48.882;12.598;2023-03-14T07:58:05;2.00;;;0.70;;
64903;SDS011;51401;48.882;12.598;2023-03-14T08:00:31;1.55;;;0.73;;
64903;SDS011;51401;48.882;12.598;2023-03-14T08:02:56;0.90;;;0.68;;
64903;SDS011;51401;48.882;12.598;2023-03-14T08:05:22;0.93;;;0.50;;
64903;SDS011;51401;48.882;12.598;2023-03-14T08:07:47;1.75;;;0.50;;
64903;SDS011;51401;48.882;12.598;2023-03-14T08:10:12;0.73;;;0.70;;
64903;SDS011;51401;48.882;12.598;2023-03-14T08:12:40;1.55;;;0.60;;
64903;SDS011;51401;48.882;12.598;2023-03-14T08:15:06;5.10;;;0.55;;
64903;SDS011;51401;48.882;12.598;2023-03-14T08:17:31;1.52;;;0.50;;
64903;SDS011;51401;48.882;12.598;2023-03-14T08:19:57;1.10;;;0.60;;
64903;SDS011;51401;48.882;12.598;2023-03-14T08:22:22;1.30;;;0.98;;
64903;SDS011;51401;48.882;12.598;2023-03-14T08:24:47;2.25;;;0.70;;
64903;SDS011;51401;48.882;12.598;2023-03-14T08:27:13;0.88;;;0.47;;
64903;SDS011;51401;48.882;12.598;2023-03-14T08:29:39;1.00;;;0.38;;
64903;SDS011;51401;48.882;12.598;2023-03-14T08:32:06;1.05;;;0.60;;
64903;SDS011;51401;48.882;12.598;2023-03-14T08:34:32;1.42;;;0.73;;
64903;SDS011;51401;48.882;12.598;2023-03-14T08:36:58;1.15;;;0.50;;
64903;SDS011;51401;48.882;12.598;2023-03-14T08:39:23;1.70;;;0.52;;
64903;SDS011;51401;48.882;12.598;2023-03-14T08:41:49;1.75;;;0.80;;
64903;SDS011;51401;48.882;12.598;2023-03-14T08:44:14;0.75;;;0.60;;
64903;SDS011;51401;48.882;12.598;2023-03-14T08:46:39;1.13;;;0.70;;
64903;SDS011;51401;48.882;12.598;2023-03-14T08:49:05;1.38;;;0.85;;
64903;SDS011;51401;48.882;12.598;2023-03-14T08:51:30;1.23;;;0.60;;
64903;SDS011;51401;48.882;12.598;2023-03-14T08:53:55;3.15;;;0.60;;
64903;SDS011;51401;48.882;12.598;2023-03-14T08:56:21;1.83;;;0.55;;
64903;SDS011;51401;48.882;12.598;2023-03-14T08:58:46;2.47;;;1.05;;
64903;SDS011;51401;48.882;12.598;2023-03-14T09:01:11;0.90;;;0.70;;
64903;SDS011;51401;48.882;12.598;2023-03-14T09:03:37;0.90;;;0.50;;
64903;SDS011;51401;48.882;12.598;2023-03-14T09:06:03;1.50;;;0.63;;
64903;SDS011;51401;48.882;12.598;2023-03-14T09:08:29;2.72;;;0.90;;
64903;SDS011;51401;48.882;12.598;2023-03-14T09:10:55;2.58;;;0.80;;
64903;SDS011;51401;48.882;12.598;2023-03-14T09:13:20;1.02;;;0.60;;
64903;SDS011;51401;48.882;12.598;2023-03-14T09:15:50;0.90;;;0.60;;
64903;SDS011;51401;48.882;12.598;2023-03-14T09:18:18;0.60;;;0.50;;
64903;SDS011;51401;48.882;12.598;2023-03-14T09:20:44;2.60;;;0.88;;
64903;SDS011;51401;48.882;12.598;2023-03-14T09:23:09;1.80;;;0.50;;
64903;SDS011;51401;48.882;12.598;2023-03-14T09:25:34;0.65;;;0.40;;
64903;SDS011;51401;48.882;12.598;2023-03-14T09:28:00;1.85;;;0.50;;
64903;SDS011;51401;48.882;12.598;2023-03-14T09:30:25;1.05;;;0.70;;
64903;SDS011;51401;48.882;12.598;2023-03-14T09:32:50;0.60;;;0.40;;
64903;SDS011;51401;48.882;12.598;2023-03-14T09:35:16;1.45;;;0.60;;
64903;SDS011;51401;48.882;12.598;2023-03-14T09:37:41;1.20;;;0.70;;
64903;SDS011;51401;48.882;12.598;2023-03-14T09:40:09;0.73;;;0.50;;
64903;SDS011;51401;48.882;12.598;2023-03-14T09:42:38;0.40;;;0.30;;
64903;SDS011;51401;48.882;12.598;2023-03-14T09:45:06;0.40;;;0.40;;
64903;SDS011;51401;48.882;12.598;2023-03-14T09:47:35;1.50;;;0.50;;
64903;SDS011;51401;48.882;12.598;2023-03-14T09:50:00;0.63;;;0.57;;
64903;SDS011;51401;48.882;12.598;2023-03-14T09:52:27;0.63;;;0.52;;
64903;SDS011;51401;48.882;12.598;2023-03-14T09:54:58;0.45;;;0.30;;
64903;SDS011;51401;48.882;12.598;2023-03-14T09:57:26;0.47;;;0.40;;
64903;SDS011;51401;48.882;12.598;2023-03-14T10:00:00;2.88;;;0.60;;
64903;SDS011;51401;48.882;12.598;2023-03-14T10:02:39;1.15;;;0.60;;
64903;SDS011;51401;48.882;12.598;2023-03-14T10:05:16;0.57;;;0.50;;
64903;SDS011;51401;48.882;12.598;2023-03-14T10:07:43;0.77;;;0.57;;
64903;SDS011;51401;48.882;12.598;2023-03-14T10:10:10;1.40;;;0.60;;
64903;SDS011;51401;48.882;12.598;2023-03-14T10:12:38;0.77;;;0.60;;
64903;SDS011;51401;48.882;12.598;2023-03-14T10:15:05;2.90;;;0.77;;
64903;SDS011;51401;48.882;12.598;2023-03-14T10:17:40;0.70;;;0.47;;
64903;SDS011;51401;48.882;12.598;2023-03-14T10:22:57;0.63;;;0.60;;
64903;SDS011;51401;48.882;12.598;2023-03-14T10:25:27;1.85;;;0.52;;
64903;SDS011;51401;48.882;12.598;2023-03-14T10:27:54;3.30;;;0.70;;
64903;SDS011;51401;48.882;12.598;2023-03-14T10:30:27;0.88;;;0.50;;
64903;SDS011;51401;48.882;12.598;2023-03-14T10:32:55;1.00;;;0.65;;
64903;SDS011;51401;48.882;12.598;2023-03-14T10:35:22;1.40;;;0.73;;
64903;SDS011;51401;48.882;12.598;2023-03-14T10:40:18;1.00;;;0.40;;
64903;SDS011;51401;48.882;12.598;2023-03-14T10:42:45;6.88;;;0.82;;
64903;SDS011;51401;48.882;12.598;2023-03-14T10:48:06;0.93;;;0.52;;
64903;SDS011;51401;48.882;12.598;2023-03-14T10:53:16;0.50;;;0.40;;
64903;SDS011;51401;48.882;12.598;2023-03-14T10:55:43;0.70;;;0.38;;
64903;SDS011;51401;48.882;12.598;2023-03-14T10:58:23;0.50;;;0.30;;
64903;SDS011;51401;48.882;12.598;2023-03-14T11:01:36;0.50;;;0.40;;
64903;SDS011;51401;48.882;12.598;2023-03-14T11:03:56;1.02;;;0.40;;
64903;SDS011;51401;48.882;12.598;2023-03-14T11:09:10;2.90;;;1.17;;
64903;SDS011;51401;48.882;12.598;2023-03-14T11:11:45;0.20;;;0.20;;
64903;SDS011;51401;48.882;12.598;2023-03-14T11:19:57;1.05;;;0.52;;
64903;SDS011;51401;48.882;12.598;2023-03-14T11:22:47;1.20;;;0.90;;
64903;SDS011;51401;48.882;12.598;2023-03-14T11:28:31;0.70;;;0.40;;
64903;SDS011;51401;48.882;12.598;2023-03-14T11:30:55;0.50;;;0.50;;
64903;SDS011;51401;48.882;12.598;2023-03-14T11:33:31;0.30;;;0.30;;
64903;SDS011;51401;48.882;12.598;2023-03-14T11:36:03;0.60;;;0.32;;
64903;SDS011;51401;48.882;12.598;2023-03-14T11:41:03;0.88;;;0.40;;
64903;SDS011;51401;48.882;12.598;2023-03-14T11:43:40;0.50;;;0.40;;
64903;SDS011;51401;48.882;12.598;2023-03-14T11:49:23;0.90;;;0.55;;
64903;SDS011;51401;48.882;12.598;2023-03-14T11:52:13;1.13;;;0.57;;
64903;SDS011;51401;48.882;12.598;2023-03-14T11:54:42;1.38;;;0.60;;
64903;SDS011;51401;48.882;12.598;2023-03-14T11:57:16;0.38;;;0.38;;
64903;SDS011;51401;48.882;12.598;2023-03-14T11:59:54;0.60;;;0.45;;
64903;SDS011;51401;48.882;12.598;2023-03-14T12:05:34;1.17;;;0.75;;
64903;SDS011;51401;48.882;12.598;2023-03-14T12:10:36;0.95;;;0.60;;
64903;SDS011;51401;48.882;12.598;2023-03-14T12:13:07;1.85;;;0.80;;
64903;SDS011;51401;48.882;12.598;2023-03-14T12:15:36;0.60;;;0.50;;
64903;SDS011;51401;48.882;12.598;2023-03-14T12:18:12;0.73;;;0.50;;
64903;SDS011;51401;48.882;12.598;2023-03-14T12:20:58;1.45;;;0.60;;
64903;SDS011;51401;48.882;12.598;2023-03-14T12:23:25;0.70;;;0.50;;
64903;SDS011;51401;48.882;12.598;2023-03-14T12:29:09;1.17;;;1.08;;
64903;SDS011;51401;48.882;12.598;2023-03-14T12:44:40;1.15;;;0.40;;
64903;SDS011;51401;48.882;12.598;2023-03-14T12:49:47;0.95;;;0.70;;
64903;SDS011;51401;48.882;12.598;2023-03-14T12:52:16;3.10;;;1.23;;
64903;SDS011;51401;48.882;12.598;2023-03-14T12:54:50;1.25;;;0.70;;
64903;SDS011;51401;48.882;12.598;2023-03-14T13:00:02;2.33;;;1.38;;
64903;SDS011;51401;48.882;12.598;2023-03-14T13:02:43;1.40;;;1.00;;
64903;SDS011;51401;48.882;12.598;2023-03-14T13:05:11;2.30;;;1.00;;
64903;SDS011;51401;48.882;12.598;2023-03-14T13:12:37;1.13;;;0.80;;
64903;SDS011;51401;48.882;12.598;2023-03-14T13:15:21;2.13;;;1.20;;
64903;SDS011;51401;48.882;12.598;2023-03-14T13:17:51;2.25;;;0.60;;
64903;SDS011;51401;48.882;12.598;2023-03-14T13:22:54;2.20;;;1.10;;
64903;SDS011;51401;48.882;12.598;2023-03-14T13:25:19;2.42;;;1.65;;
64903;SDS011;51401;48.882;12.598;2023-03-14T13:27:47;1.90;;;1.40;;
64903;SDS011;51401;48.882;12.598;2023-03-14T13:30:14;1.15;;;1.05;;
64903;SDS011;51401;48.882;12.598;2023-03-14T13:32:46;3.22;;;1.77;;
64903;SDS011;51401;48.882;12.598;2023-03-14T13:35:16;4.85;;;3.30;;
64903;SDS011;51401;48.882;12.598;2023-03-14T13:37:47;3.83;;;2.13;;
64903;SDS011;51401;48.882;12.598;2023-03-14T13:40:34;1.35;;;0.90;;
64903;SDS011;51401;48.882;12.598;2023-03-14T13:45:56;1.80;;;1.20;;
64903;SDS011;51401;48.882;12.598;2023-03-14T13:48:27;1.88;;;1.00;;
64903;SDS011;51401;48.882;12.598;2023-03-14T13:51:16;2.75;;;1.60;;
64903;SDS011;51401;48.882;12.598;2023-03-14T13:53:45;3.33;;;1.85;;
64903;SDS011;51401;48.882;12.598;2023-03-14T13:56:14;3.58;;;1.27;;
64903;SDS011;51401;48.882;12.598;2023-03-14T13:58:40;7.97;;;4.03;;
64903;SDS011;51401;48.882;12.598;2023-03-14T14:01:11;2.83;;;1.48;;
64903;SDS011;51401;48.882;12.598;2023-03-14T14:03:39;7.10;;;3.58;;
64903;SDS011;51401;48.882;12.598;2023-03-14T14:06:18;3.00;;;1.73;;
64903;SDS011;51401;48.882;12.598;2023-03-14T14:08:48;15.63;;;9.30;;
64903;SDS011;51401;48.882;12.598;2023-03-14T14:14:05;2.55;;;1.55;;
64903;SDS011;51401;48.882;12.598;2023-03-14T14:16:33;2.13;;;1.15;;
64903;SDS011;51401;48.882;12.598;2023-03-14T14:18:59;2.28;;;0.98;;
64903;SDS011;51401;48.882;12.598;2023-03-14T14:21:25;1.48;;;0.80;;
64903;SDS011;51401;48.882;12.598;2023-03-14T14:23:51;1.33;;;1.13;;
64903;SDS011;51401;48.882;12.598;2023-03-14T14:26:17;2.47;;;1.73;;
64903;SDS011;51401;48.882;12.598;2023-03-14T14:28:44;6.82;;;4.28;;
64903;SDS011;51401;48.882;12.598;2023-03-14T14:33:43;1.48;;;1.20;;
64903;SDS011;51401;48.882;12.598;2023-03-14T14:38:53;2.67;;;1.70;;
64903;SDS011;51401;48.882;12.598;2023-03-14T14:41:39;1.58;;;0.80;;
64903;SDS011;51401;48.882;12.598;2023-03-14T14:44:06;0.57;;;0.50;;
64903;SDS011;51401;48.882;12.598;2023-03-14T14:46:33;0.50;;;0.50;;
64903;SDS011;51401;48.882;12.598;2023-03-14T14:49:10;1.58;;;0.70;;
64903;SDS011;51401;48.882;12.598;2023-03-14T14:51:42;2.75;;;1.95;;
64903;SDS011;51401;48.882;12.598;2023-03-14T14:56:37;1.88;;;0.50;;
64903;SDS011;51401;48.882;12.598;2023-03-14T14:59:03;1.35;;;0.90;;
64903;SDS011;51401;48.882;12.598;2023-03-14T15:01:32;1.77;;;0.50;;
64903;SDS011;51401;48.882;12.598;2023-03-14T15:04:04;0.90;;;0.50;;
64903;SDS011;51401;48.882;12.598;2023-03-14T15:06:36;1.08;;;0.60;;
64903;SDS011;51401;48.882;12.598;2023-03-14T15:09:01;1.77;;;1.00;;
64903;SDS011;51401;48.882;12.598;2023-03-14T15:11:27;1.80;;;0.75;;
64903;SDS011;51401;48.882;12.598;2023-03-14T15:13:52;1.23;;;0.63;;
64903;SDS011;51401;48.882;12.598;2023-03-14T15:16:20;2.88;;;1.35;;
64903;SDS011;51401;48.882;12.598;2023-03-14T15:18:49;1.65;;;1.00;;
64903;SDS011;51401;48.882;12.598;2023-03-14T15:21:19;1.63;;;0.60;;
64903;SDS011;51401;48.882;12.598;2023-03-14T15:23:44;2.60;;;1.17;;
64903;SDS011;51401;48.882;12.598;2023-03-14T15:26:13;2.50;;;0.80;;
64903;SDS011;51401;48.882;12.598;2023-03-14T15:28:40;0.95;;;0.80;;
64903;SDS011;51401;48.882;12.598;2023-03-14T15:31:08;1.40;;;1.08;;
64903;SDS011;51401;48.882;12.598;2023-03-14T15:33:35;1.27;;;0.85;;
64903;SDS011;51401;48.882;12.598;2023-03-14T15:36:01;2.60;;;1.40;;
64903;SDS011;51401;48.882;12.598;2023-03-14T15:38:26;1.08;;;0.98;;
64903;SDS011;51401;48.882;12.598;2023-03-14T15:40:52;1.70;;;0.70;;
64903;SDS011;51401;48.882;12.598;2023-03-14T15:43:17;0.47;;;0.47;;
64903;SDS011;51401;48.882;12.598;2023-03-14T15:45:44;0.70;;;0.60;;
64903;SDS011;51401;48.882;12.598;2023-03-14T15:48:12;1.10;;;0.80;;
64903;SDS011;51401;48.882;12.598;2023-03-14T15:50:40;1.10;;;0.73;;
64903;SDS011;51401;48.882;12.598;2023-03-14T15:53:05;1.67;;;0.90;;
64903;SDS011;51401;48.882;12.598;2023-03-14T15:55:31;1.00;;;0.80;;
64903;SDS011;51401;48.882;12.598;2023-03-14T15:57:56;0.55;;;0.50;;
64903;SDS011;51401;48.882;12.598;2023-03-14T16:00:22;0.80;;;0.60;;
64903;SDS011;51401;48.882;12.598;2023-03-14T16:02:49;0.88;;;0.80;;
64903;SDS011;51401;48.882;12.598;2023-03-14T16:05:15;1.60;;;0.80;;